Time;durP1;ratioP1;P1;durP2;ratioP2;P2;SDS_P1;SDS_P2;PMS_P1;PMS_P2;Temp;Humidity;BMP_temperature;BMP_pressure;BME280_temperature;BME280_humidity;BME280_pressure;Samples;Min_cycle;Max_cycle;Signal;HPM_P1;HPM_P2
2023/08/12 00:00:22;;;;;;;;;;;;;;;20.73;62.22;98375.09;5049568;28;19931;-58
2023/08/12 00:02:50;;;;;;;;;;;;;;;20.74;61.86;98368.41;5067269;28;19954;-57
2023/08/12 00:05:18;;;;;;;;;;;;;;;20.76;61.85;98366.06;5049070;28;20416;-57
2023/08/12 00:07:46;;;;;;;;;;;;;;;20.76;61.71;98370.78;5050531;28;20608;-58
2023/08/12 00:10:14;;;;;;;;;;;;;;;20.71;61.98;98363.59;5048783;28;19928;-58
2023/08/12 00:12:42;;;;;;;;;;;;;;;20.60;62.25;98366.16;5038473;28;20437;-57
2023/08/12 00:15:10;;;;;;;;;;;;;;;20.60;62.35;98365.38;5048521;28;19931;-57
2023/08/12 00:17:42;;;;;;;;;;;;;;;20.59;62.67;98358.25;5048359;28;20010;-57
2023/08/12 00:20:10;;;;;;;;;;;;;;;20.55;62.65;98363.69;5046943;28;20325;-57
2023/08/12 00:22:40;;;;;;;;;;;;;;;20.58;62.30;98360.22;5049748;28;19929;-57
2023/08/12 00:25:08;;;;;;;;;;;;;;;20.60;62.47;98357.09;5031425;28;19924;-57
2023/08/12 00:27:37;;;;;;;;;;;;;;;20.62;62.45;98354.78;5048267;28;19940;-57
2023/08/12 00:30:05;;;;;;;;;;;;;;;20.62;62.59;98346.50;5062730;28;19932;-57
2023/08/12 00:32:33;;;;;;;;;;;;;;;20.61;62.49;98344.88;5048476;28;19925;-57
2023/08/12 00:35:03;;;;;;;;;;;;;;;20.57;62.51;98344.03;5045152;28;19925;-58
2023/08/12 00:37:31;;;;;;;;;;;;;;;20.56;62.71;98340.47;5033473;28;19924;-58
2023/08/12 00:39:59;;;;;;;;;;;;;;;20.49;63.02;98345.06;5054158;28;19947;-58
2023/08/12 00:42:27;;;;;;;;;;;;;;;20.50;62.77;98352.97;5034967;28;19932;-59
2023/08/12 00:44:54;;;;;;;;;;;;;;;20.49;62.95;98353.34;5030406;28;19935;-57
2023/08/12 00:47:22;;;;;;;;;;;;;;;20.40;63.04;98346.06;5031419;28;20516;-57
2023/08/12 00:49:50;;;;;;;;;;;;;;;20.44;62.99;98343.34;5032977;28;20992;-58
2023/08/12 00:52:20;;;;;;;;;;;;;;;20.43;62.90;98336.25;5046267;28;20382;-58
2023/08/12 00:54:48;;;;;;;;;;;;;;;20.41;62.90;98336.63;5036793;28;19932;-58
2023/08/12 00:57:18;;;;;;;;;;;;;;;20.39;62.81;98332.63;5033146;28;20024;-58
2023/08/12 00:59:46;;;;;;;;;;;;;;;20.40;62.97;98334.25;5048522;28;19985;-57
2023/08/12 01:02:14;;;;;;;;;;;;;;;20.35;63.11;98335.34;5033297;28;19928;-58
2023/08/12 01:04:42;;;;;;;;;;;;;;;20.35;63.24;98334.53;5060512;28;19925;-61
2023/08/12 01:07:11;;;;;;;;;;;;;;;20.30;63.40;98338.38;5047517;28;19929;-57
2023/08/12 01:09:40;;;;;;;;;;;;;;;20.31;63.44;98333.66;5064496;28;19925;-57
2023/08/12 01:12:10;;;;;;;;;;;;;;;20.31;63.67;98337.22;5050779;28;19929;-58
2023/08/12 01:14:40;;;;;;;;;;;;;;;20.29;63.48;98333.22;5062387;28;19925;-58
2023/08/12 01:17:08;;;;;;;;;;;;;;;20.27;63.59;98327.28;5032178;28;19925;-57
2023/08/12 01:19:37;;;;;;;;;;;;;;;20.24;63.57;98316.97;5061760;28;20452;-57
2023/08/12 01:22:07;;;;;;;;;;;;;;;20.25;63.62;98324.88;5046275;28;19925;-57
2023/08/12 01:24:36;;;;;;;;;;;;;;;20.18;63.75;98324.72;5049151;28;19970;-57
2023/08/12 01:27:04;;;;;;;;;;;;;;;20.18;63.58;98319.22;5034596;28;19947;-57
2023/08/12 01:29:32;;;;;;;;;;;;;;;20.15;63.74;98311.69;5060615;28;20341;-56
2023/08/12 01:32:02;;;;;;;;;;;;;;;20.17;63.72;98311.31;5035800;28;19931;-62
2023/08/12 01:34:33;;;;;;;;;;;;;;;20.13;63.67;98306.53;5047574;28;19928;-57
2023/08/12 01:37:01;;;;;;;;;;;;;;;20.12;63.78;98306.88;5062746;28;19932;-57
2023/08/12 01:39:29;;;;;;;;;;;;;;;19.98;64.24;98301.13;5034358;28;19925;-57
2023/08/12 01:41:58;;;;;;;;;;;;;;;19.98;64.46;98301.13;5032542;28;19933;-60
2023/08/12 01:44:26;;;;;;;;;;;;;;;19.93;64.60;98306.91;5028194;28;19929;-56
2023/08/12 01:46:54;;;;;;;;;;;;;;;19.82;64.89;98299.22;5026785;28;19933;-57
2023/08/12 01:49:23;;;;;;;;;;;;;;;19.74;65.16;98300.22;5026659;28;19925;-57
2023/08/12 01:51:50;;;;;;;;;;;;;;;19.82;64.89;98306.69;5026989;28;19994;-57
2023/08/12 01:54:20;;;;;;;;;;;;;;;19.85;64.58;98295.72;5026040;28;19925;-57
2023/08/12 01:56:48;;;;;;;;;;;;;;;19.81;64.79;98299.56;5026034;28;20386;-57
2023/08/12 01:59:17;;;;;;;;;;;;;;;19.81;65.22;98288.53;5041854;28;19937;-57
2023/08/12 02:01:45;;;;;;;;;;;;;;;19.80;65.04;98290.50;5025564;28;19948;-59
2023/08/12 02:04:13;;;;;;;;;;;;;;;19.79;65.01;98277.88;5025867;28;19940;-57
2023/08/12 02:06:41;;;;;;;;;;;;;;;19.71;65.38;98278.91;5027107;28;19980;-58
2023/08/12 02:09:09;;;;;;;;;;;;;;;19.67;65.47;98289.06;5042448;28;20305;-57
2023/08/12 02:11:37;;;;;;;;;;;;;;;19.64;65.41;98281.50;5040239;28;19951;-58
2023/08/12 02:14:05;;;;;;;;;;;;;;;19.66;65.47;98279.19;5043529;28;19933;-57
2023/08/12 02:16:35;;;;;;;;;;;;;;;19.55;65.93;98286.41;5040889;28;20369;-57
2023/08/12 02:19:02;;;;;;;;;;;;;;;19.45;66.58;98284.22;5041710;28;19925;-61
2023/08/12 02:21:31;;;;;;;;;;;;;;;19.43;66.45;98278.25;5026227;28;20362;-58
2023/08/12 02:24:00;;;;;;;;;;;;;;;19.46;66.48;98278.34;5041120;28;19924;-56
2023/08/12 02:26:28;;;;;;;;;;;;;;;19.48;66.21;98276.03;5027652;28;19936;-57
2023/08/12 02:28:56;;;;;;;;;;;;;;;19.54;65.89;98276.53;5045347;28;19932;-58
2023/08/12 02:31:24;;;;;;;;;;;;;;;19.56;65.99;98272.28;5029719;28;19944;-57
2023/08/12 02:33:53;;;;;;;;;;;;;;;19.51;66.05;98277.28;5042431;28;19929;-58
2023/08/12 02:36:21;;;;;;;;;;;;;;;19.47;66.01;98263.41;5028543;28;19967;-58
2023/08/12 02:38:52;;;;;;;;;;;;;;;19.27;66.74;98265.34;5026630;28;19948;-58
2023/08/12 02:41:20;;;;;;;;;;;;;;;19.22;66.77;98264.81;5040631;28;19925;-57
2023/08/12 02:43:48;;;;;;;;;;;;;;;19.16;66.94;98266.25;5033194;28;20341;-57
2023/08/12 02:46:17;;;;;;;;;;;;;;;19.10;67.04;98261.03;5061564;28;19928;-57
2023/08/12 02:48:47;;;;;;;;;;;;;;;19.05;67.51;98257.75;5037031;28;19925;-57
2023/08/12 02:51:16;;;;;;;;;;;;;;;19.14;67.00;98258.38;5025451;28;20374;-58
2023/08/12 02:53:44;;;;;;;;;;;;;;;19.05;67.38;98258.56;5047850;28;19998;-57
2023/08/12 02:56:14;;;;;;;;;;;;;;;19.01;67.47;98251.34;5059959;28;19929;-57
2023/08/12 02:58:42;;;;;;;;;;;;;;;19.09;67.29;98251.19;5046692;28;19932;-57
2023/08/12 03:01:10;;;;;;;;;;;;;;;19.12;67.22;98252.41;5048843;28;19948;-58
2023/08/12 03:03:38;;;;;;;;;;;;;;;19.09;67.26;98251.19;5032005;28;19955;-57
2023/08/12 03:06:06;;;;;;;;;;;;;;;19.09;67.33;98251.19;5054720;28;19931;-57
2023/08/12 03:08:35;;;;;;;;;;;;;;;19.14;67.05;98250.09;5036201;28;19939;-59
2023/08/12 03:11:04;;;;;;;;;;;;;;;19.14;67.01;98247.34;5048074;28;19925;-57
2023/08/12 03:13:32;;;;;;;;;;;;;;;19.13;67.02;98250.47;5049966;28;19940;-59
2023/08/12 03:16:00;;;;;;;;;;;;;;;19.02;67.28;98244.72;5037832;28;19978;-57
2023/08/12 03:18:29;;;;;;;;;;;;;;;19.02;67.22;98250.22;5053721;28;19955;-60
2023/08/12 03:20:57;;;;;;;;;;;;;;;18.94;67.37;98248.44;5037873;28;19979;-59
2023/08/12 03:23:25;;;;;;;;;;;;;;;18.95;67.61;98245.34;5053189;28;20398;-57
2023/08/12 03:25:56;;;;;;;;;;;;;;;18.75;68.11;98247.25;5034533;28;19932;-57
2023/08/12 03:28:24;;;;;;;;;;;;;;;18.77;67.85;98239.44;5055853;28;19960;-57
2023/08/12 03:30:52;;;;;;;;;;;;;;;18.75;67.83;98233.50;5065491;28;20283;-57
2023/08/12 03:33:22;;;;;;;;;;;;;;;18.86;67.49;98241.19;5063732;28;19967;-58
2023/08/12 03:35:52;;;;;;;;;;;;;;;18.80;67.43;98241.47;5037762;28;19932;-57
2023/08/12 03:38:20;;;;;;;;;;;;;;;18.82;67.45;98238.34;5046516;28;20305;-57
2023/08/12 03:40:48;;;;;;;;;;;;;;;18.89;67.30;98237.72;5032163;28;19932;-57
2023/08/12 03:43:19;;;;;;;;;;;;;;;18.92;66.98;98242.53;5028489;28;19979;-59
2023/08/12 03:45:48;;;;;;;;;;;;;;;18.95;66.90;98241.78;5029490;28;19925;-58
2023/08/12 03:48:19;;;;;;;;;;;;;;;18.99;66.57;98245.44;5029405;28;19925;-60
2023/08/12 03:50:50;;;;;;;;;;;;;;;19.00;66.47;98244.25;5041954;28;19932;-57
2023/08/12 03:53:18;;;;;;;;;;;;;;;18.94;66.45;98249.25;5045416;28;19960;-57
2023/08/12 03:55:46;;;;;;;;;;;;;;;18.98;66.34;98243.84;5040912;28;20382;-57
2023/08/12 03:58:16;;;;;;;;;;;;;;;18.89;66.65;98238.50;5024199;28;20390;-57
2023/08/12 04:00:46;;;;;;;;;;;;;;;18.82;66.77;98230.91;5045916;28;19965;-58
2023/08/12 04:03:15;;;;;;;;;;;;;;;18.88;66.69;98242.44;5042325;28;20026;-57
2023/08/12 04:05:51;;;;;;;;;;;;;;;18.86;66.82;98233.75;5027834;28;19929;-58
2023/08/12 04:08:20;;;;;;;;;;;;;;;18.83;66.73;98240.75;5025937;28;19973;-57
2023/08/12 04:10:48;;;;;;;;;;;;;;;18.87;66.59;98242.78;5030304;28;19932;-58
2023/08/12 04:13:16;;;;;;;;;;;;;;;18.77;66.90;98247.69;5029562;28;19925;-56
2023/08/12 04:15:49;;;;;;;;;;;;;;;18.67;67.17;98245.44;5019818;28;19926;-57
2023/08/12 04:18:20;;;;;;;;;;;;;;;18.56;67.59;98236.13;5029209;28;19933;-57
2023/08/12 04:20:50;;;;;;;;;;;;;;;18.54;67.72;98247.50;5044813;28;19925;-57
2023/08/12 04:23:18;;;;;;;;;;;;;;;18.65;67.47;98247.75;5042171;28;19987;-58
2023/08/12 04:25:47;;;;;;;;;;;;;;;18.73;67.17;98246.00;5027979;28;19925;-56
2023/08/12 04:28:15;;;;;;;;;;;;;;;18.71;67.19;98242.81;5040877;28;19925;-60
2023/08/12 04:30:44;;;;;;;;;;;;;;;18.65;67.34;98245.00;5026883;28;19936;-57
2023/08/12 04:33:13;;;;;;;;;;;;;;;18.58;67.52;98253.88;5041644;28;19933;-57
2023/08/12 04:35:42;;;;;;;;;;;;;;;18.63;67.41;98250.06;5040715;28;19975;-56
2023/08/12 04:38:10;;;;;;;;;;;;;;;18.68;67.22;98249.81;5026660;28;19924;-58
2023/08/12 04:40:40;;;;;;;;;;;;;;;18.77;66.96;98236.66;5027562;28;19929;-57
2023/08/12 04:43:08;;;;;;;;;;;;;;;18.71;67.10;98229.84;5044750;28;19983;-57
2023/08/12 04:45:38;;;;;;;;;;;;;;;18.75;67.01;98224.41;5044523;28;20643;-57
2023/08/12 04:48:06;;;;;;;;;;;;;;;18.78;66.83;98224.50;5042179;28;19926;-57
2023/08/12 04:50:36;;;;;;;;;;;;;;;18.74;66.84;98223.63;5032352;28;19925;-57
2023/08/12 04:53:04;;;;;;;;;;;;;;;18.75;66.61;98227.97;5027024;28;19968;-58
2023/08/12 04:55:32;;;;;;;;;;;;;;;18.81;66.42;98232.06;5033276;28;20409;-57
2023/08/12 04:58:01;;;;;;;;;;;;;;;18.88;66.39;98231.41;5027965;28;19933;-58
2023/08/12 05:00:30;;;;;;;;;;;;;;;18.82;66.51;98222.63;5039949;28;19937;-58
2023/08/12 05:02:59;;;;;;;;;;;;;;;18.85;66.49;98221.09;5026998;28;20447;-57
2023/08/12 05:05:27;;;;;;;;;;;;;;;18.93;66.12;98227.59;5029192;28;19925;-57
2023/08/12 05:07:56;;;;;;;;;;;;;;;18.98;66.08;98227.31;5045295;28;19925;-58
2023/08/12 05:10:24;;;;;;;;;;;;;;;18.98;65.77;98224.56;5027218;28;20397;-57
2023/08/12 05:12:54;;;;;;;;;;;;;;;18.95;65.84;98225.25;5022830;28;19925;-57
2023/08/12 05:15:22;;;;;;;;;;;;;;;18.91;66.16;98222.44;5026201;28;20090;-57
2023/08/12 05:17:55;;;;;;;;;;;;;;;18.91;66.12;98221.63;5024873;28;20283;-59
2023/08/12 05:20:23;;;;;;;;;;;;;;;18.96;65.83;98213.09;5026497;28;19957;-57
2023/08/12 05:22:51;;;;;;;;;;;;;;;18.97;65.68;98217.47;5040968;28;19929;-58
2023/08/12 05:25:20;;;;;;;;;;;;;;;19.00;65.58;98213.97;5027820;28;19933;-58
2023/08/12 05:27:48;;;;;;;;;;;;;;;19.03;65.45;98211.31;5028791;28;20349;-57
2023/08/12 05:30:16;;;;;;;;;;;;;;;19.03;65.38;98211.31;5024897;28;20374;-57
2023/08/12 05:32:44;;;;;;;;;;;;;;;19.07;65.20;98214.16;5028077;28;19931;-58
2023/08/12 05:35:12;;;;;;;;;;;;;;;19.04;65.26;98217.63;5026414;28;20297;-58
2023/08/12 05:37:40;;;;;;;;;;;;;;;18.99;65.54;98215.13;5030069;28;19933;-57
2023/08/12 05:40:09;;;;;;;;;;;;;;;19.03;65.72;98216.81;5025479;28;19925;-60
2023/08/12 05:42:38;;;;;;;;;;;;;;;19.08;65.43;98211.03;5035887;28;19932;-57
2023/08/12 05:45:07;;;;;;;;;;;;;;;19.15;65.39;98215.09;5050683;28;19929;-57
2023/08/12 05:47:35;;;;;;;;;;;;;;;19.21;65.45;98206.19;5064071;28;19939;-57
2023/08/12 05:50:03;;;;;;;;;;;;;;;19.25;65.48;98206.25;5049337;28;19932;-58
2023/08/12 05:52:31;;;;;;;;;;;;;;;19.21;65.04;98200.66;5051507;28;19991;-58
2023/08/12 05:54:59;;;;;;;;;;;;;;;19.32;64.92;98201.69;5047111;28;19931;-59
2023/08/12 05:57:27;;;;;;;;;;;;;;;19.43;64.80;98199.16;5044100;28;19931;-58
2023/08/12 05:59:57;;;;;;;;;;;;;;;19.48;64.79;98203.59;5041303;28;19925;-57
2023/08/12 06:02:25;;;;;;;;;;;;;;;19.44;65.06;98210.97;5057598;28;19954;-58
2023/08/12 06:04:53;;;;;;;;;;;;;;;19.55;65.05;98203.75;5040277;28;19925;-58
2023/08/12 06:07:23;;;;;;;;;;;;;;;19.56;65.08;98199.81;5037362;28;20286;-58
2023/08/12 06:09:50;;;;;;;;;;;;;;;19.60;65.35;98200.69;5034624;28;19936;-57
2023/08/12 06:12:18;;;;;;;;;;;;;;;19.62;65.18;98198.41;5041618;28;19925;-57
2023/08/12 06:14:46;;;;;;;;;;;;;;;19.63;65.27;98202.75;5045861;28;20478;-57
2023/08/12 06:17:15;;;;;;;;;;;;;;;19.67;65.40;98194.56;5041736;28;19929;-57
2023/08/12 06:19:43;;;;;;;;;;;;;;;19.67;65.24;98198.09;5041913;28;19933;-58
2023/08/12 06:22:11;;;;;;;;;;;;;;;19.68;65.30;98196.94;5042729;28;19936;-61
2023/08/12 06:24:39;;;;;;;;;;;;;;;19.71;65.22;98193.47;5041603;28;19955;-58
2023/08/12 06:27:07;;;;;;;;;;;;;;;19.74;65.14;98200.97;5047501;28;19970;-58
2023/08/12 06:29:35;;;;;;;;;;;;;;;19.76;65.49;98192.34;5046447;28;19986;-57
2023/08/12 06:32:03;;;;;;;;;;;;;;;19.77;65.50;98196.72;5047693;28;19929;-58
2023/08/12 06:34:32;;;;;;;;;;;;;;;19.79;65.76;98197.94;5047637;28;20426;-61
2023/08/12 06:36:59;;;;;;;;;;;;;;;19.82;65.90;98201.94;5038543;28;19929;-57
2023/08/12 06:39:27;;;;;;;;;;;;;;;19.80;66.25;98202.28;5047873;28;20278;-57
2023/08/12 06:41:55;;;;;;;;;;;;;;;19.85;65.87;98192.91;5050594;28;19978;-58
2023/08/12 06:44:23;;;;;;;;;;;;;;;19.89;65.85;98191.81;5048521;28;19937;-59
2023/08/12 06:46:51;;;;;;;;;;;;;;;19.92;66.05;98190.31;5047553;28;20389;-60
2023/08/12 06:49:18;;;;;;;;;;;;;;;19.96;66.06;98187.59;5059630;28;19929;-60
2023/08/12 06:51:48;;;;;;;;;;;;;;;19.99;65.98;98195.16;5051417;28;19925;-58
2023/08/12 06:54:16;;;;;;;;;;;;;;;20.04;65.95;98192.09;5046188;28;19947;-57
2023/08/12 06:56:43;;;;;;;;;;;;;;;20.06;65.64;98198.03;5049928;28;19933;-58
2023/08/12 06:59:11;;;;;;;;;;;;;;;20.13;65.15;98190.69;5041388;28;19935;-59
2023/08/12 07:01:39;;;;;;;;;;;;;;;20.19;65.31;98199.44;5040713;28;19952;-58
2023/08/12 07:04:07;;;;;;;;;;;;;;;20.26;65.66;98198.78;5044834;28;19929;-57
2023/08/12 07:06:35;;;;;;;;;;;;;;;20.31;65.50;98196.50;5048219;28;19925;-60
2023/08/12 07:09:04;;;;;;;;;;;;;;;20.34;65.17;98201.25;5045982;28;19924;-59
2023/08/12 07:11:32;;;;;;;;;;;;;;;20.36;64.69;98195.41;5041799;28;19925;-57
2023/08/12 07:14:00;;;;;;;;;;;;;;;20.38;64.15;98193.84;5051068;28;19931;-57
2023/08/12 07:16:27;;;;;;;;;;;;;;;20.49;66.10;98201.53;5027405;28;19933;-58
2023/08/12 07:18:56;;;;;;;;;;;;;;;20.60;65.27;98195.00;5038679;28;19925;-58
2023/08/12 07:21:24;;;;;;;;;;;;;;;20.65;64.61;98196.66;5027381;28;19928;-57
2023/08/12 07:23:52;;;;;;;;;;;;;;;20.69;64.24;98189.25;5044154;28;19935;-58
2023/08/12 07:26:31;;;;;;;;;;;;;;;20.83;63.99;98202.47;5047623;28;19978;-57
2023/08/12 07:28:59;;;;;;;;;;;;;;;20.88;63.88;98202.97;5027418;28;20436;-60
2023/08/12 07:31:27;;;;;;;;;;;;;;;20.86;63.41;98202.50;5049328;28;19935;-57
2023/08/12 07:33:57;;;;;;;;;;;;;;;20.88;63.68;98208.47;5026946;28;19931;-58
2023/08/12 07:36:25;;;;;;;;;;;;;;;20.87;63.63;98195.81;5049439;28;20038;-61
2023/08/12 07:38:53;;;;;;;;;;;;;;;20.85;63.41;98192.63;5046014;28;19925;-57
2023/08/12 07:41:21;;;;;;;;;;;;;;;20.97;63.36;98204.63;5047629;28;19986;-57
2023/08/12 07:43:50;;;;;;;;;;;;;;;21.08;63.20;98209.13;5044204;28;20171;-60
2023/08/12 07:46:18;;;;;;;;;;;;;;;21.17;62.75;98203.34;5039665;28;20395;-58
2023/08/12 07:48:46;;;;;;;;;;;;;;;21.21;62.44;98204.19;5043254;28;20289;-58
2023/08/12 07:51:13;;;;;;;;;;;;;;;21.27;61.82;98199.13;5043731;28;19932;-57
2023/08/12 07:53:41;;;;;;;;;;;;;;;21.33;61.29;98195.69;5044023;28;19929;-58
2023/08/12 07:56:09;;;;;;;;;;;;;;;21.43;60.69;98197.78;5048069;28;19946;-58
2023/08/12 07:58:37;;;;;;;;;;;;;;;21.49;61.53;98200.22;5048397;28;19936;-58
2023/08/12 08:01:08;;;;;;;;;;;;;;;21.52;61.75;98192.00;5046088;28;19983;-57
2023/08/12 08:03:36;;;;;;;;;;;;;;;21.55;60.70;98193.97;5045966;28;21599;-58
2023/08/12 08:06:04;;;;;;;;;;;;;;;21.61;60.34;98186.16;5033697;28;19932;-57
2023/08/12 08:08:32;;;;;;;;;;;;;;;21.62;60.28;98187.72;5049502;28;19929;-59
2023/08/12 08:11:00;;;;;;;;;;;;;;;21.63;60.78;98201.19;5049195;28;20345;-61
2023/08/12 08:13:28;;;;;;;;;;;;;;;21.63;60.58;98203.16;5047302;28;19939;-59
2023/08/12 08:15:56;;;;;;;;;;;;;;;21.63;60.74;98206.72;5050541;28;19978;-57
2023/08/12 08:18:25;;;;;;;;;;;;;;;21.62;60.67;98207.88;5064696;28;19928;-58
2023/08/12 08:20:53;;;;;;;;;;;;;;;21.70;61.14;98197.72;5053313;28;20677;-60
2023/08/12 08:23:21;;;;;;;;;;;;;;;21.67;62.55;98203.97;5031863;28;19932;-60
2023/08/12 08:25:49;;;;;;;;;;;;;;;21.71;62.93;98199.31;5049937;28;19929;-60
2023/08/12 08:28:17;;;;;;;;;;;;;;;21.77;61.54;98195.00;5048425;28;19924;-59
2023/08/12 08:30:45;;;;;;;;;;;;;;;21.78;61.41;98193.84;5048075;28;19933;-60
2023/08/12 08:33:13;;;;;;;;;;;;;;;21.90;61.48;98190.81;5051365;28;19939;-59
2023/08/12 08:35:44;;;;;;;;;;;;;;;21.92;61.46;98182.94;5043145;28;20521;-59
2023/08/12 08:38:12;;;;;;;;;;;;;;;22.02;61.84;98184.22;5031635;28;20019;-59
2023/08/12 08:40:40;;;;;;;;;;;;;;;22.15;60.82;98179.22;5029621;28;19929;-58
2023/08/12 08:43:08;;;;;;;;;;;;;;;22.26;60.64;98180.09;5045221;28;19993;-59
2023/08/12 08:45:36;;;;;;;;;;;;;;;22.22;60.47;98193.94;5049925;28;19940;-59
2023/08/12 08:48:04;;;;;;;;;;;;;;;22.19;59.88;98185.59;5049982;28;19937;-59
2023/08/12 08:50:33;;;;;;;;;;;;;;;22.20;59.19;98192.72;5045101;28;20071;-59
2023/08/12 08:53:02;;;;;;;;;;;;;;;22.20;60.79;98198.25;5028109;28;20016;-59
2023/08/12 08:55:30;;;;;;;;;;;;;;;22.22;60.21;98210.53;5045889;28;20336;-59
2023/08/12 08:57:58;;;;;;;;;;;;;;;22.20;60.01;98209.31;5045481;28;19929;-58
2023/08/12 09:00:32;;;;;;;;;;;;;;;22.25;59.36;98211.72;5044553;28;19932;-61
2023/08/12 09:03:00;;;;;;;;;;;;;;;22.27;60.50;98206.63;5032496;28;19964;-57
2023/08/12 09:05:28;;;;;;;;;;;;;;;22.27;59.87;98198.31;5048810;28;20344;-58
2023/08/12 09:07:56;;;;;;;;;;;;;;;22.25;58.73;98210.94;5045854;28;19928;-58
2023/08/12 09:10:28;;;;;;;;;;;;;;;22.44;60.01;98203.22;5043194;28;19924;-57
2023/08/12 09:12:59;;;;;;;;;;;;;;;22.44;58.92;98203.22;5061837;28;19925;-57
2023/08/12 09:15:26;;;;;;;;;;;;;;;22.56;57.99;98187.47;5048330;28;19978;-57
2023/08/12 09:17:54;;;;;;;;;;;;;;;22.64;58.36;98194.69;5046287;28;20417;-57
2023/08/12 09:20:22;;;;;;;;;;;;;;;22.69;58.50;98197.06;5044767;28;20226;-57
2023/08/12 09:22:56;;;;;;;;;;;;;;;22.74;57.89;98191.16;5046290;28;19924;-57
2023/08/12 09:25:24;;;;;;;;;;;;;;;22.76;57.79;98191.59;5044964;28;20373;-58
2023/08/12 09:27:56;;;;;;;;;;;;;;;22.69;58.14;98188.75;5049955;28;19952;-58
2023/08/12 09:30:24;;;;;;;;;;;;;;;22.75;58.97;98187.25;5045443;28;20065;-59
2023/08/12 09:33:02;;;;;;;;;;;;;;;22.80;58.99;98197.13;5050172;28;19929;-58
2023/08/12 09:35:34;;;;;;;;;;;;;;;22.78;58.78;98200.28;5051519;28;19932;-59
2023/08/12 09:38:03;;;;;;;;;;;;;;;22.75;58.82;98195.53;5048397;28;19964;-62
2023/08/12 09:40:32;;;;;;;;;;;;;;;22.77;58.45;98198.72;5036156;28;19969;-59
2023/08/12 09:43:01;;;;;;;;;;;;;;;22.74;56.88;98193.94;5026407;28;19932;-58
2023/08/12 09:45:29;;;;;;;;;;;;;;;22.73;57.04;98195.13;5028921;28;19975;-57
2023/08/12 09:47:57;;;;;;;;;;;;;;;22.70;58.18;98191.16;5027553;28;19991;-57
2023/08/12 09:50:25;;;;;;;;;;;;;;;22.69;58.35;98191.53;5030814;28;19925;-58
2023/08/12 09:52:53;;;;;;;;;;;;;;;22.68;59.07;98189.94;5028384;28;20003;-58
2023/08/12 09:55:22;;;;;;;;;;;;;;;22.72;59.04;98196.31;5027276;28;19951;-58
2023/08/12 09:57:52;;;;;;;;;;;;;;;22.73;58.76;98203.44;5026769;28;19933;-58
2023/08/12 10:00:21;;;;;;;;;;;;;;;22.72;58.69;98204.59;5029381;28;20135;-60
2023/08/12 10:02:51;;;;;;;;;;;;;;;22.73;58.84;98200.66;5027410;28;19929;-59
2023/08/12 10:05:20;;;;;;;;;;;;;;;22.76;58.89;98202.66;5027228;28;20016;-58
2023/08/12 10:07:48;;;;;;;;;;;;;;;22.97;58.36;98204.81;5028433;28;19925;-60
2023/08/12 10:10:16;;;;;;;;;;;;;;;22.99;58.18;98206.00;5043392;28;19987;-59
2023/08/12 10:12:45;;;;;;;;;;;;;;;23.12;58.42;98192.63;5025810;28;19982;-58
2023/08/12 10:15:13;;;;;;;;;;;;;;;23.20;57.59;98193.47;5028965;28;19943;-58
2023/08/12 10:17:43;;;;;;;;;;;;;;;23.14;57.06;98183.94;5027295;28;19929;-58
2023/08/12 10:20:13;;;;;;;;;;;;;;;23.13;57.59;98191.44;5027763;28;19932;-58
2023/08/12 10:22:41;;;;;;;;;;;;;;;23.34;57.22;98184.44;5033132;28;19932;-58
2023/08/12 10:25:09;;;;;;;;;;;;;;;23.29;56.70;98174.50;5026592;28;19994;-59
2023/08/12 10:27:37;;;;;;;;;;;;;;;23.37;57.68;98176.09;5026119;28;20637;-58
2023/08/12 10:30:05;;;;;;;;;;;;;;;23.30;57.19;98173.31;5030041;28;19925;-58
2023/08/12 10:32:33;;;;;;;;;;;;;;;23.30;57.74;98178.84;5024557;28;20390;-59
2023/08/12 10:35:03;;;;;;;;;;;;;;;23.34;56.65;98171.38;5028299;28;19924;-60
2023/08/12 10:37:32;;;;;;;;;;;;;;;23.33;57.72;98169.78;5030177;28;19936;-59
2023/08/12 10:40:00;;;;;;;;;;;;;;;23.41;58.41;98153.94;5024475;28;19925;-58
2023/08/12 10:42:40;;;;;;;;;;;;;;;23.51;57.14;98144.88;5037225;28;19932;-57
2023/08/12 10:45:09;;;;;;;;;;;;;;;23.61;57.43;98151.66;5048251;28;19944;-58
2023/08/12 10:47:41;;;;;;;;;;;;;;;23.76;57.75;98150.53;5062327;28;20002;-58
2023/08/12 10:50:19;;;;;;;;;;;;;;;23.82;56.62;98157.28;5042155;28;20366;-57
2023/08/12 10:52:47;;;;;;;;;;;;;;;23.76;55.47;98153.31;5046862;28;19929;-57
2023/08/12 10:55:18;;;;;;;;;;;;;;;23.70;57.03;98154.84;5045299;28;19932;-57
2023/08/12 10:57:46;;;;;;;;;;;;;;;23.79;57.37;98149.72;5048317;28;19931;-57
2023/08/12 11:00:15;;;;;;;;;;;;;;;23.76;58.17;98143.00;5053562;28;19978;-57
2023/08/12 11:02:45;;;;;;;;;;;;;;;23.74;56.56;98139.81;5049196;28;19928;-58
2023/08/12 11:05:13;;;;;;;;;;;;;;;23.90;58.59;98141.44;5063273;28;19928;-58
2023/08/12 11:07:43;;;;;;;;;;;;;;;23.89;56.62;98142.63;5046745;28;19929;-57
2023/08/12 11:10:12;;;;;;;;;;;;;;;23.86;56.98;98135.84;5044197;28;20393;-59
2023/08/12 11:12:40;;;;;;;;;;;;;;;24.01;58.87;98137.47;5040316;28;20668;-57
2023/08/12 11:15:11;;;;;;;;;;;;;;;24.19;56.78;98131.94;5036751;28;20021;-58
2023/08/12 11:17:39;;;;;;;;;;;;;;;24.18;55.42;98116.50;5016626;28;19928;-60
2023/08/12 11:20:09;;;;;;;;;;;;;;;24.33;57.21;98120.03;5040435;28;20080;-58
2023/08/12 11:22:37;;;;;;;;;;;;;;;24.36;56.08;98115.72;5025482;28;19939;-56
2023/08/12 11:25:08;;;;;;;;;;;;;;;24.39;55.88;98112.91;5048719;28;19975;-56
2023/08/12 11:27:40;;;;;;;;;;;;;;;24.35;56.28;98105.78;5049172;28;19928;-56
2023/08/12 11:30:10;;;;;;;;;;;;;;;24.67;57.14;98102.97;5046560;28;19968;-55
2023/08/12 11:32:38;;;;;;;;;;;;;;;24.76;55.98;98104.13;5044938;28;19943;-56
2023/08/12 11:35:06;;;;;;;;;;;;;;;24.78;55.70;98100.97;5033465;28;19929;-56
2023/08/12 11:37:36;;;;;;;;;;;;;;;24.84;55.65;98099.34;5046906;28;20010;-57
2023/08/12 11:40:04;;;;;;;;;;;;;;;24.97;54.29;98096.91;5060941;28;19924;-58
2023/08/12 11:42:33;;;;;;;;;;;;;;;24.90;54.06;98097.75;5046963;28;19925;-58
2023/08/12 11:45:01;;;;;;;;;;;;;;;24.85;54.02;98095.38;5052651;28;19977;-55
2023/08/12 11:47:29;;;;;;;;;;;;;;;24.75;53.45;98085.88;5046676;28;20853;-57
2023/08/12 11:49:57;;;;;;;;;;;;;;;24.77;54.75;98085.47;5046974;28;19943;-57
2023/08/12 11:52:25;;;;;;;;;;;;;;;24.90;55.80;98080.28;5040741;28;19937;-57
2023/08/12 11:54:53;;;;;;;;;;;;;;;24.81;53.30;98066.78;5041537;28;20372;-56
2023/08/12 11:57:23;;;;;;;;;;;;;;;24.78;53.63;98068.41;5040090;28;19936;-57
2023/08/12 11:59:52;;;;;;;;;;;;;;;24.95;57.16;98077.06;5042191;28;20059;-55
2023/08/12 12:02:20;;;;;;;;;;;;;;;24.85;55.05;98075.91;5054724;28;19929;-58
2023/08/12 12:04:48;;;;;;;;;;;;;;;24.86;54.36;98073.94;5045328;28;19928;-56
2023/08/12 12:07:20;;;;;;;;;;;;;;;24.93;54.98;98074.72;5043787;28;19924;-56
2023/08/12 12:09:50;;;;;;;;;;;;;;;25.02;57.00;98065.91;5051362;28;20355;-55
2023/08/12 12:12:19;;;;;;;;;;;;;;;24.94;55.18;98056.03;5029743;28;19981;-58
2023/08/12 12:14:47;;;;;;;;;;;;;;;24.89;54.41;98048.13;5053178;28;19959;-56
2023/08/12 12:17:17;;;;;;;;;;;;;;;25.25;54.50;98041.22;5047136;28;19925;-57
2023/08/12 12:19:45;;;;;;;;;;;;;;;25.23;55.06;98037.25;5040766;28;19924;-56
2023/08/12 12:22:13;;;;;;;;;;;;;;;25.10;53.36;98025.81;5048867;28;19963;-56
2023/08/12 12:24:46;;;;;;;;;;;;;;;25.18;55.06;98023.78;5044029;28;19929;-56
2023/08/12 12:27:14;;;;;;;;;;;;;;;25.22;55.04;98019.00;5047918;28;20354;-56
2023/08/12 12:29:42;;;;;;;;;;;;;;;25.48;53.51;98015.66;5049025;28;19985;-58
2023/08/12 12:32:11;;;;;;;;;;;;;;;25.41;53.18;98015.72;5047161;28;19928;-59
2023/08/12 12:34:41;;;;;;;;;;;;;;;25.50;54.01;98007.69;5045696;28;20115;-56
2023/08/12 12:37:09;;;;;;;;;;;;;;;25.41;53.41;97999.03;5046225;28;19936;-57
2023/08/12 12:39:36;;;;;;;;;;;;;;;25.63;53.44;97998.88;5047450;28;20636;-55
2023/08/12 12:42:04;;;;;;;;;;;;;;;25.70;52.49;97998.81;5046288;28;19924;-56
2023/08/12 12:44:32;;;;;;;;;;;;;;;25.87;53.69;98006.22;5050286;28;20435;-56
2023/08/12 12:47:02;;;;;;;;;;;;;;;25.82;52.31;98001.09;5049185;28;20395;-56
2023/08/12 12:49:30;;;;;;;;;;;;;;;25.94;52.68;98013.72;5050952;28;19929;-56
2023/08/12 12:51:59;;;;;;;;;;;;;;;25.93;52.88;98012.94;5051225;28;19974;-57
2023/08/12 12:54:27;;;;;;;;;;;;;;;25.92;51.86;98019.72;5047478;28;19925;-56